createdAt,value
2022-09-14T02:14:30.313Z,100778.56
2022-09-14T02:16:56.924Z,100778.72
2022-09-14T02:19:25.400Z,100778.72
2022-09-14T02:21:51.981Z,100773.03
2022-09-14T02:24:18.547Z,100771.41
2022-09-14T02:26:45.648Z,100770.16
2022-09-14T02:29:12.263Z,100771.41
2022-09-14T02:32:08.885Z,100769.75
2022-09-14T02:35:16.751Z,100761.59
2022-09-14T02:37:49.198Z,100762.50
2022-09-14T02:40:27.704Z,100749.78
2022-09-14T02:42:57.044Z,100749.06
2022-09-14T02:45:43.993Z,100753.19
2022-09-14T02:48:16.246Z,100751.69
2022-09-14T02:50:56.062Z,100749.66
2022-09-14T02:53:35.620Z,100753.31
2022-09-14T02:56:07.912Z,100751.41
2022-09-14T02:58:42.411Z,100748.03
2022-09-14T03:01:11.562Z,100749.66
2022-09-14T03:03:38.423Z,100744.38
2022-09-14T03:06:05.567Z,100749.78
2022-09-14T03:08:32.856Z,100749.91
2022-09-14T03:10:59.480Z,100742.72
2022-09-14T03:13:26.021Z,100749.91
2022-09-14T03:15:52.682Z,100737.44
2022-09-14T03:18:19.645Z,100734.31
2022-09-14T03:20:46.317Z,100731.91
2022-09-14T03:23:13.611Z,100740.13
2022-09-14T03:25:42.317Z,100726.50
2022-09-14T03:28:10.160Z,100728.38
2022-09-14T03:30:36.890Z,100726.75
2022-09-14T03:33:03.669Z,100719.34
2022-09-14T03:35:31.510Z,100717.56
2022-09-14T03:37:59.420Z,100717.56
2022-09-14T03:40:26.825Z,100718.34
2022-09-14T03:42:53.647Z,100716.63
2022-09-14T03:45:21.017Z,100714.19
2022-09-14T03:47:47.975Z,100719.47
2022-09-14T03:50:15.741Z,100713.94
2022-09-14T03:52:42.341Z,100716.06
2022-09-14T03:55:10.031Z,100696.38
2022-09-14T03:57:37.176Z,100697.88
2022-09-14T04:00:05.826Z,100703.25
2022-09-14T04:02:32.533Z,100690.69
2022-09-14T04:04:59.129Z,100694.34
2022-09-14T04:07:25.838Z,100695.47
2022-09-14T04:09:52.364Z,100688.19
2022-09-14T04:12:18.942Z,100695.41
2022-09-14T04:14:45.520Z,100692.56
2022-09-14T04:17:12.069Z,100701.50
2022-09-14T04:19:42.203Z,100708.66
2022-09-14T04:22:08.953Z,100705.34
2022-09-14T04:24:35.509Z,100693.03
2022-09-14T04:27:02.067Z,100691.00
2022-09-14T04:29:30.602Z,100685.94
2022-09-14T04:31:57.621Z,100689.47
2022-09-14T04:34:24.191Z,100689.56
2022-09-14T04:36:50.745Z,100692.94
2022-09-14T04:39:17.388Z,100690.50
2022-09-14T04:41:43.957Z,100687.97
2022-09-14T04:44:10.808Z,100692.19
2022-09-14T04:46:43.625Z,100682.28
2022-09-14T04:49:13.200Z,100684.31
2022-09-14T04:51:39.805Z,100689.56
2022-09-14T04:54:07.222Z,100690.00
2022-09-14T04:56:35.744Z,100689.72
2022-09-14T04:59:04.428Z,100680.13
2022-09-14T05:01:37.198Z,100684.69
2022-09-14T05:04:04.673Z,100682.56
2022-09-14T05:06:34.052Z,100677.78
2022-09-14T05:09:03.065Z,100676.34
2022-09-14T05:11:31.705Z,100683.88
2022-09-14T05:13:59.176Z,100679.41
2022-09-14T05:16:28.089Z,100677.53
2022-09-14T05:19:02.018Z,100677.53
2022-09-14T05:21:29.960Z,100677.69
2022-09-14T05:24:01.366Z,100679.41
2022-09-14T05:26:29.871Z,100671.38
2022-09-14T05:28:59.945Z,100672.38
2022-09-14T05:31:27.724Z,100670.25
2022-09-14T05:33:54.704Z,100666.88
2022-09-14T05:36:21.650Z,100668.59
2022-09-14T05:38:48.237Z,100662.06
2022-09-14T05:41:15.639Z,100658.63
2022-09-14T05:43:42.392Z,100670.38
2022-09-14T05:46:14.413Z,100661.69
2022-09-14T05:48:41.099Z,100664.03
2022-09-14T05:51:16.341Z,100668.00
2022-09-14T05:53:50.779Z,100668.88
2022-09-14T05:56:18.664Z,100672.66
2022-09-14T05:58:45.491Z,100669.94
2022-09-14T06:01:17.405Z,100656.53
2022-09-14T06:03:44.898Z,100665.63
2022-09-14T06:06:17.491Z,100658.47
2022-09-14T06:08:44.613Z,100655.63
2022-09-14T06:11:15.239Z,100662.09
2022-09-14T06:13:42.423Z,100662.09
2022-09-14T06:16:12.427Z,100657.72
2022-09-14T06:18:40.170Z,100658.72
2022-09-14T06:21:07.761Z,100658.47
2022-09-14T06:23:34.566Z,100660.44
2022-09-14T06:26:02.537Z,100662.22
2022-09-14T06:28:29.381Z,100661.66
2022-09-14T06:30:56.341Z,100660.44
2022-09-14T06:33:23.369Z,100660.72
2022-09-14T06:36:01.476Z,100661.97
2022-09-14T06:38:29.065Z,100657.31
2022-09-14T06:41:00.692Z,100669.28
2022-09-14T06:43:29.355Z,100674.78
2022-09-14T06:46:19.801Z,100678.06
2022-09-14T06:48:50.941Z,100668.88
2022-09-14T06:51:19.805Z,100665.47
2022-09-14T06:53:47.053Z,100665.38
2022-09-14T06:56:14.056Z,100675.34
2022-09-14T06:58:41.149Z,100675.91
2022-09-14T07:01:11.299Z,100679.28
2022-09-14T07:03:39.108Z,100679.19
2022-09-14T07:06:10.968Z,100680.53
2022-09-14T07:08:38.749Z,100684.44
2022-09-14T07:11:06.354Z,100690.22
2022-09-14T07:13:32.917Z,100690.34
2022-09-14T07:15:59.713Z,100689.41
2022-09-14T07:18:33.712Z,100688.34
2022-09-14T07:21:10.332Z,100688.41
2022-09-14T07:23:38.492Z,100697.63
2022-09-14T07:26:09.056Z,100693.31
2022-09-14T07:28:36.608Z,100690.66
2022-09-14T07:31:04.224Z,100687.00
2022-09-14T07:33:31.123Z,100692.31
2022-09-14T07:36:08.170Z,100684.06
2022-09-14T07:38:51.705Z,100682.81
2022-09-14T07:41:22.890Z,100681.63
2022-09-14T07:43:54.017Z,100683.56
2022-09-14T07:46:21.591Z,100678.03
2022-09-14T07:48:49.062Z,100659.25
2022-09-14T07:51:15.785Z,100668.59
2022-09-14T07:53:43.327Z,100661.69
2022-09-14T07:56:11.440Z,100662.81
2022-09-14T07:58:38.257Z,100663.91
2022-09-14T08:01:11.934Z,100676.25
2022-09-14T08:03:43.509Z,100670.25
2022-09-14T08:06:16.871Z,100670.94
2022-09-14T08:08:44.324Z,100670.00
2022-09-14T08:11:16.249Z,100667.97
2022-09-14T08:13:45.861Z,100660.13
2022-09-14T08:16:13.407Z,100665.72
2022-09-14T08:18:40.238Z,100658.78
2022-09-14T08:21:07.951Z,100664.97
2022-09-14T08:23:34.698Z,100663.19
2022-09-14T08:26:05.824Z,100657.41
2022-09-14T08:28:32.394Z,100663.69
2022-09-14T08:31:06.792Z,100658.28
2022-09-14T08:33:34.849Z,100661.22
2022-09-14T08:36:01.643Z,100669.44
2022-09-14T08:38:28.354Z,100664.97
2022-09-14T08:40:55.294Z,100668.59
2022-09-14T08:43:23.737Z,100662.34
2022-09-14T08:45:51.106Z,100665.22
2022-09-14T08:48:24.109Z,100657.94
2022-09-14T08:50:53.818Z,100659.81
2022-09-14T08:53:21.604Z,100656.94
2022-09-14T08:55:54.709Z,100663.09
2022-09-14T08:58:56.646Z,100650.88
2022-09-14T09:01:36.464Z,100656.47
2022-09-14T09:04:07.186Z,100651.63
2022-09-14T09:06:51.649Z,100651.38
2022-09-14T09:09:27.024Z,100649.53
2022-09-14T09:11:55.569Z,100665.19
2022-09-14T09:14:24.295Z,100652.28
2022-09-14T09:16:54.260Z,100651.25
2022-09-14T09:19:32.773Z,100657.34
2022-09-14T09:21:59.981Z,100650.94
2022-09-14T09:24:35.208Z,100656.94
2022-09-14T09:27:09.843Z,100651.47
2022-09-14T09:29:36.373Z,100658.84
2022-09-14T09:32:04.740Z,100658.13
2022-09-14T09:34:31.452Z,100647.94
2022-09-14T09:37:00.829Z,100649.75
2022-09-14T09:39:30.486Z,100648.28
2022-09-14T09:42:29.115Z,100650.56
2022-09-14T09:45:03.308Z,100649.28
2022-09-14T09:47:41.256Z,100656.25
2022-09-14T09:50:13.647Z,100647.41
2022-09-14T09:52:49.697Z,100640.97
2022-09-14T09:55:21.291Z,100645.25
2022-09-14T09:57:47.881Z,100642.00
2022-09-14T10:00:24.373Z,100646.09
2022-09-14T10:02:51.779Z,100644.34
2022-09-14T10:05:21.718Z,100640.97
2022-09-14T10:07:53.855Z,100644.22
2022-09-14T10:10:26.929Z,100636.31
2022-09-14T10:12:55.967Z,100644.06
2022-09-14T10:15:31.321Z,100641.03
2022-09-14T10:18:13.199Z,100646.44
2022-09-14T10:20:42.756Z,100643.94
2022-09-14T10:23:20.265Z,100645.28
2022-09-14T10:26:03.672Z,100645.53
2022-09-14T10:28:33.876Z,100634.31
2022-09-14T10:31:16.019Z,100639.59
2022-09-14T10:33:42.732Z,100629.78
2022-09-14T10:36:21.057Z,100622.34
2022-09-14T10:39:01.212Z,100624.09
2022-09-14T10:41:34.277Z,100625.09
2022-09-14T10:44:19.528Z,100621.25
2022-09-14T10:47:12.320Z,100623.88
2022-09-14T10:49:51.812Z,100618.69
2022-09-14T10:52:50.660Z,100626.44
2022-09-14T10:55:20.127Z,100619.13
2022-09-14T10:58:17.337Z,100631.97
2022-09-14T11:01:18.114Z,100624.28
2022-09-14T11:03:56.832Z,100619.28
2022-09-14T11:06:49.260Z,100618.72
2022-09-14T11:09:38.849Z,100619.78
2022-09-14T11:12:20.481Z,100606.94
2022-09-14T11:15:02.384Z,100604.09
2022-09-14T11:17:45.505Z,100611.19
2022-09-14T11:20:15.587Z,100600.28
2022-09-14T11:22:47.856Z,100594.88
2022-09-14T11:25:36.851Z,100600.94
2022-09-14T11:28:14.431Z,100597.78
2022-09-14T11:30:45.908Z,100607.28
2022-09-14T11:33:54.899Z,100605.47
2022-09-14T11:36:23.235Z,100616.94
2022-09-14T11:39:06.070Z,100608.19
2022-09-14T11:41:41.720Z,100601.66
2022-09-14T11:44:16.022Z,100597.34
2022-09-14T11:46:47.009Z,100601.00
2022-09-14T11:50:11.243Z,100606.34
2022-09-14T11:52:37.816Z,100615.50
2022-09-14T11:55:12.044Z,100605.41
2022-09-14T11:57:38.620Z,100605.31
2022-09-14T12:00:23.752Z,100604.53
2022-09-14T12:03:19.226Z,100611.38
2022-09-14T12:05:46.924Z,100606.25
2022-09-14T12:08:31.616Z,100609.78
2022-09-14T12:11:08.390Z,100606.94
2022-09-14T12:13:36.635Z,100601.50
2022-09-14T12:16:08.621Z,100604.94
2022-09-14T12:18:39.885Z,100598.81
2022-09-14T12:21:20.520Z,100598.63
2022-09-14T12:23:52.178Z,100594.97
2022-09-14T12:26:18.857Z,100601.25
2022-09-14T12:28:48.495Z,100594.84
2022-09-14T12:31:40.092Z,100598.03
2022-09-14T12:34:14.967Z,100602.00
2022-09-14T12:36:41.800Z,100590.84
2022-09-14T12:39:31.044Z,100592.47
2022-09-14T12:42:25.547Z,100597.06
2022-09-14T12:44:52.545Z,100596.25
2022-09-14T12:47:24.885Z,100592.78
2022-09-14T12:49:53.895Z,100595.31
2022-09-14T12:52:29.838Z,100597.72
2022-09-14T12:55:08.827Z,100598.19
2022-09-14T12:57:59.291Z,100598.84
2022-09-14T13:00:26.928Z,100598.91
2022-09-14T13:02:56.449Z,100595.81
2022-09-14T13:05:25.681Z,100596.13
2022-09-14T13:07:54.042Z,100601.53
2022-09-14T13:10:33.251Z,100594.22
2022-09-14T13:13:06.952Z,100598.69
2022-09-14T13:15:36.834Z,100593.56
2022-09-14T13:18:12.768Z,100587.19
2022-09-14T13:20:40.405Z,100581.78
2022-09-14T13:23:20.393Z,100580.00
2022-09-14T13:25:46.987Z,100585.28
2022-09-14T13:28:18.276Z,100570.78
2022-09-14T13:30:54.318Z,100579.72
2022-09-14T13:33:21.221Z,100579.06
2022-09-14T13:35:49.450Z,100582.72
2022-09-14T13:38:23.576Z,100566.41
2022-09-14T13:40:52.283Z,100570.06
2022-09-14T13:43:20.336Z,100566.97
2022-09-14T13:45:48.632Z,100563.63
2022-09-14T13:48:16.612Z,100563.97
2022-09-14T13:50:45.493Z,100561.94
2022-09-14T13:53:37.173Z,100562.47
2022-09-14T13:56:23.336Z,100565.09
2022-09-14T13:58:51.897Z,100560.88
2022-09-14T14:01:27.172Z,100560.94
2022-09-14T14:03:54.130Z,100558.19
2022-09-14T14:06:28.703Z,100551.53
2022-09-14T14:08:58.913Z,100553.31
2022-09-14T14:11:35.864Z,100555.38
2022-09-14T14:14:11.574Z,100551.41
2022-09-14T14:16:38.236Z,100545.97
2022-09-14T14:19:04.809Z,100541.69
2022-09-14T14:21:32.794Z,100546.13
2022-09-14T14:24:27.775Z,100540.56
2022-09-14T14:26:57.073Z,100541.50
2022-09-14T14:29:24.341Z,100535.16
2022-09-14T14:31:50.955Z,100533.25
2022-09-14T14:34:20.543Z,100525.97
2022-09-14T14:36:49.907Z,100520.97
2022-09-14T14:39:21.094Z,100516.66
2022-09-14T14:41:48.223Z,100516.66
2022-09-14T14:44:20.564Z,100506.59
2022-09-14T14:46:47.313Z,100514.56
2022-09-14T14:49:15.747Z,100504.06
2022-09-14T14:51:42.284Z,100498.66
2022-09-14T14:54:10.227Z,100500.88
2022-09-14T14:56:38.161Z,100502.16
2022-09-14T14:59:21.162Z,100506.91
2022-09-14T15:01:48.739Z,100499.81
2022-09-14T15:04:15.584Z,100499.88
2022-09-14T15:06:42.372Z,100497.97
2022-09-14T15:09:18.258Z,100495.59
2022-09-14T15:11:45.242Z,100489.22
2022-09-14T15:14:14.039Z,100490.97
2022-09-14T15:16:40.694Z,100489.22
2022-09-14T15:19:07.666Z,100493.75
2022-09-14T15:21:34.311Z,100485.56
2022-09-14T15:24:01.407Z,100494.47
2022-09-14T15:26:28.152Z,100479.34
2022-09-14T15:28:54.712Z,100478.38
2022-09-14T15:31:21.331Z,100478.53
2022-09-14T15:33:48.148Z,100484.66
2022-09-14T15:36:35.409Z,100480.16
2022-09-14T15:39:02.134Z,100475.91
2022-09-14T15:41:28.705Z,100472.25
2022-09-14T15:43:55.252Z,100471.38
2022-09-14T15:46:21.787Z,100471.53
2022-09-14T15:48:48.362Z,100468.94
2022-09-14T15:51:14.886Z,100473.44
2022-09-14T15:53:42.231Z,100475.22
2022-09-14T15:56:10.802Z,100475.53
2022-09-14T15:58:37.636Z,100486.22
2022-09-14T16:01:12.139Z,100488.94
2022-09-14T16:03:40.232Z,100481.81
2022-09-14T16:06:07.635Z,100484.81
2022-09-14T16:08:38.264Z,100482.72
2022-09-14T16:11:05.820Z,100475.97
2022-09-14T16:13:33.548Z,100485.28
2022-09-14T16:16:11.202Z,100472.03
2022-09-14T16:18:38.186Z,100473.88
2022-09-14T16:21:18.718Z,100475.53
2022-09-14T16:23:56.343Z,100484.09
2022-09-14T16:26:25.585Z,100474.91
2022-09-14T16:28:52.996Z,100474.91
2022-09-14T16:31:34.102Z,100467.75
2022-09-14T16:34:05.998Z,100472.22
2022-09-14T16:36:35.442Z,100474.75
2022-09-14T16:39:04.423Z,100472.22
2022-09-14T16:41:31.450Z,100473.06
2022-09-14T16:43:59.733Z,100481.28
2022-09-14T16:46:27.559Z,100482.25
2022-09-14T16:48:54.718Z,100487.81
2022-09-14T16:51:23.665Z,100485.75
2022-09-14T16:53:51.684Z,100491.22
2022-09-14T16:56:23.628Z,100492.13
2022-09-14T16:58:52.937Z,100495.78
2022-09-14T17:01:28.740Z,100492.13
2022-09-14T17:03:57.455Z,100496.09
2022-09-14T17:06:26.677Z,100494.22
2022-09-14T17:08:55.228Z,100489.97
2022-09-14T17:11:21.958Z,100487.34
2022-09-14T17:13:48.620Z,100485.41
2022-09-14T17:16:17.680Z,100482.06
2022-09-14T17:18:45.651Z,100490.28
2022-09-14T17:21:14.554Z,100494.66
2022-09-14T17:23:41.286Z,100491.56
2022-09-14T17:26:09.933Z,100494.53
2022-09-14T17:28:37.410Z,100497.69
2022-09-14T17:31:06.052Z,100493.22
2022-09-14T17:33:35.440Z,100498.19
2022-09-14T17:36:03.820Z,100492.25
2022-09-14T17:38:36.903Z,100492.88
2022-09-14T17:41:05.635Z,100492.88
2022-09-14T17:43:33.081Z,100489.38
2022-09-14T17:45:59.849Z,100491.31
2022-09-14T17:48:27.862Z,100489.56
2022-09-14T17:50:55.189Z,100485.91
2022-09-14T17:53:21.867Z,100491.63
2022-09-14T17:55:48.470Z,100486.34
2022-09-14T17:58:19.478Z,100486.75
2022-09-14T18:00:46.410Z,100484.13
2022-09-14T18:03:13.117Z,100491.31
2022-09-14T18:05:39.748Z,100488.66
2022-09-14T18:08:07.353Z,100484.47
2022-09-14T18:10:36.124Z,100494.56
2022-09-14T18:13:02.676Z,100491.44
2022-09-14T18:15:30.962Z,100495.44
2022-09-14T18:17:57.805Z,100500.72
2022-09-14T18:20:24.421Z,100497.03
2022-09-14T18:22:50.961Z,100491.78
2022-09-14T18:25:17.530Z,100495.44
2022-09-14T18:27:44.065Z,100497.19
2022-09-14T18:30:11.116Z,100497.50
2022-09-14T18:32:37.724Z,100499.09
2022-09-14T18:35:04.833Z,100506.50
2022-09-14T18:37:31.489Z,100504.50
2022-09-14T18:39:58.114Z,100512.91
2022-09-14T18:42:24.736Z,100516.56
2022-09-14T18:44:53.906Z,100512.94
2022-09-14T18:47:22.420Z,100510.41
2022-09-14T18:49:50.031Z,100521.38
2022-09-14T18:52:18.107Z,100515.97
2022-09-14T18:54:44.678Z,100510.00
2022-09-14T18:57:11.712Z,100509.13
2022-09-14T18:59:38.317Z,100510.88
2022-09-14T19:02:04.967Z,100512.75
2022-09-14T19:04:31.602Z,100511.91
2022-09-14T19:06:58.164Z,100511.69
2022-09-14T19:09:24.750Z,100519.94
2022-09-14T19:11:51.286Z,100518.34
2022-09-14T19:14:20.530Z,100516.44
2022-09-14T19:16:47.117Z,100525.56
2022-09-14T19:19:14.853Z,100525.75
2022-09-14T19:21:41.749Z,100531.81
2022-09-14T19:24:12.721Z,100535.97
2022-09-14T19:26:45.500Z,100529.31
2022-09-14T19:29:18.112Z,100530.44
2022-09-14T19:31:44.770Z,100536.06
2022-09-14T19:34:11.580Z,100537.44
2022-09-14T19:36:38.123Z,100527.88
2022-09-14T19:39:04.968Z,100529.78
2022-09-14T19:41:33.059Z,100534.31
2022-09-14T19:44:00.347Z,100535.66
2022-09-14T19:46:27.116Z,100537.25
2022-09-14T19:48:54.013Z,100535.34
2022-09-14T19:51:25.274Z,100526.72
2022-09-14T19:53:53.960Z,100524.97
2022-09-14T19:56:22.481Z,100532.56
2022-09-14T19:58:51.263Z,100525.41
2022-09-14T20:01:20.136Z,100533.28
2022-09-14T20:03:47.752Z,100525.41
2022-09-14T20:06:22.678Z,100521.88
2022-09-14T20:08:56.757Z,100518.22
2022-09-14T20:11:25.369Z,100520.28
2022-09-14T20:13:56.850Z,100518.34
2022-09-14T20:16:26.505Z,100518.22
2022-09-14T20:18:53.196Z,100519.47
2022-09-14T20:21:22.829Z,100520.41
2022-09-14T20:24:16.624Z,100515.00
2022-09-14T20:26:48.533Z,100515.91
2022-09-14T20:29:16.298Z,100511.34
2022-09-14T20:31:43.052Z,100506.53
2022-09-14T20:34:09.838Z,100503.63
2022-09-14T20:36:36.404Z,100507.41
2022-09-14T20:39:03.666Z,100504.66
2022-09-14T20:41:33.284Z,100508.31
2022-09-14T20:44:00.274Z,100505.59
2022-09-14T20:46:31.055Z,100506.13
2022-09-14T20:48:57.954Z,100521.44
2022-09-14T20:51:25.399Z,100506.84
2022-09-14T20:53:52.203Z,100506.03
2022-09-14T20:56:22.117Z,100508.59
2022-09-14T20:58:49.398Z,100503.03
2022-09-14T21:01:20.178Z,100506.84
2022-09-14T21:03:48.114Z,100501.56
2022-09-14T21:06:17.839Z,100505.50
2022-09-14T21:08:44.919Z,100503.47
2022-09-14T21:11:17.095Z,100508.50
2022-09-14T21:13:44.261Z,100500.56
2022-09-14T21:16:19.763Z,100513.09
2022-09-14T21:18:48.256Z,100507.69
2022-09-14T21:21:18.336Z,100510.19
2022-09-14T21:23:45.092Z,100501.56
2022-09-14T21:26:12.541Z,100509.16
2022-09-14T21:28:41.012Z,100502.75
2022-09-14T21:31:15.954Z,100507.97
2022-09-14T21:33:44.715Z,100503.38
2022-09-14T21:36:14.281Z,100502.94
2022-09-14T21:38:41.256Z,100499.09
2022-09-14T21:41:10.248Z,100503.69
2022-09-14T21:43:38.208Z,100506.75
2022-09-14T21:46:05.151Z,100519.50
2022-09-14T21:48:32.317Z,100511.44
2022-09-14T21:51:17.105Z,100512.06
2022-09-14T21:53:55.152Z,100515.03
2022-09-14T21:56:23.461Z,100512.16
2022-09-14T21:58:51.556Z,100512.44
2022-09-14T22:01:18.560Z,100514.22
2022-09-14T22:03:45.220Z,100512.75
2022-09-14T22:06:13.222Z,100510.84
2022-09-14T22:08:40.247Z,100511.31
2022-09-14T22:11:08.109Z,100510.84
2022-09-14T22:13:35.045Z,100517.84
2022-09-14T22:16:09.891Z,100517.84
2022-09-14T22:18:37.952Z,100509.75
2022-09-14T22:21:04.979Z,100516.38
2022-09-14T22:23:32.297Z,100512.63
2022-09-14T22:25:59.032Z,100507.34
2022-09-14T22:28:25.675Z,100511.13
2022-09-14T22:30:54.532Z,100511.91
2022-09-14T22:33:22.650Z,100513.69
2022-09-14T22:35:57.209Z,100508.34
2022-09-14T22:38:26.915Z,100515.63
2022-09-14T22:40:58.526Z,100519.91
2022-09-14T22:43:25.995Z,100520.56
2022-09-14T22:45:52.767Z,100511.13
2022-09-14T22:48:19.678Z,100516.38
2022-09-14T22:50:48.101Z,100520.03
2022-09-14T22:53:15.157Z,100520.91
2022-09-14T22:55:42.663Z,100525.59
2022-09-14T22:58:09.913Z,100515.91
2022-09-14T23:00:38.813Z,100521.19
2022-09-14T23:03:06.642Z,100517.22
2022-09-14T23:05:33.800Z,100523.16
2022-09-14T23:08:00.392Z,100517.75
2022-09-14T23:10:27.265Z,100524.97
2022-09-14T23:12:53.956Z,100516.81
2022-09-14T23:15:20.545Z,100523.00
2022-09-14T23:17:51.865Z,100522.63
2022-09-14T23:20:18.690Z,100520.09
2022-09-14T23:22:45.227Z,100519.78
2022-09-14T23:25:11.783Z,100524.38
2022-09-14T23:27:38.319Z,100526.25
2022-09-14T23:30:05.192Z,100522.75
2022-09-14T23:32:32.271Z,100522.63
2022-09-14T23:34:58.815Z,100530.59
2022-09-14T23:37:25.357Z,100528.97
2022-09-14T23:39:52.044Z,100530.91
2022-09-14T23:42:18.652Z,100527.09
2022-09-14T23:44:45.217Z,100528.03
2022-09-14T23:47:11.769Z,100529.63
2022-09-14T23:49:38.292Z,100533.53
2022-09-14T23:52:04.887Z,100532.56
2022-09-14T23:54:32.206Z,100530.09
2022-09-14T23:56:58.733Z,100527.09
2022-09-14T23:59:25.340Z,100532.69
